Time;durP1;ratioP1;P1;durP2;ratioP2;P2;SDS_P1;SDS_P2;PMS_P1;PMS_P2;Temp;Humidity;BMP_temperature;BMP_pressure;BME280_temperature;BME280_humidity;BME280_pressure;Samples;Min_cycle;Max_cycle;Signal;HPM_P1;HPM_P2
2023/05/04 00:02:11;;;;;;;10.70;8.70;;;;;;;15.21;100.00;100042.80;105959;1254;73352;-73
2023/05/04 00:04:38;;;;;;;9.10;8.30;;;;;;;15.41;100.00;100045.40;105757;1260;61301;-73
2023/05/04 00:07:05;;;;;;;10.50;9.40;;;;;;;15.32;100.00;100042.08;105943;1255;62304;-74
2023/05/04 00:09:32;;;;;;;10.40;9.30;;;;;;;15.44;100.00;100042.23;105883;1254;74825;-73
2023/05/04 00:11:58;;;;;;;9.80;8.60;;;;;;;15.44;100.00;100039.23;105915;1256;67516;-76
2023/05/04 00:14:26;;;;;;;10.20;9.20;;;;;;;15.43;100.00;100033.29;106070;1253;72564;-72
2023/05/04 00:16:53;;;;;;;12.10;9.30;;;;;;;15.48;100.00;100031.88;105877;1256;62916;-70
2023/05/04 00:19:19;;;;;;;9.10;8.20;;;;;;;15.47;100.00;100034.69;105895;1257;62379;-72
2023/05/04 00:21:46;;;;;;;9.70;8.70;;;;;;;14.67;100.00;100029.20;105882;1256;75742;-69
2023/05/04 00:24:13;;;;;;;11.30;9.60;;;;;;;14.47;100.00;100029.13;105673;1253;69356;-73
2023/05/04 00:26:40;;;;;;;12.60;10.00;;;;;;;14.04;100.00;100022.21;105830;1253;73649;-70
2023/05/04 00:29:07;;;;;;;12.10;9.90;;;;;;;14.04;100.00;100023.58;105609;1257;61330;-73
2023/05/04 00:31:34;;;;;;;12.50;9.90;;;;;;;14.01;100.00;100018.13;105824;1253;61304;-74
2023/05/04 00:34:01;;;;;;;16.60;11.70;;;;;;;13.80;100.00;100020.18;105870;1256;75811;-73
2023/05/04 00:36:28;;;;;;;24.10;15.10;;;;;;;13.52;100.00;100015.91;106024;1253;68863;-72
2023/05/04 00:38:55;;;;;;;30.00;15.40;;;;;;;14.25;100.00;100016.72;106045;1254;73691;-72
2023/05/04 00:41:22;;;;;;;32.90;17.60;;;;;;;14.70;100.00;100025.33;105890;1257;61880;-72
2023/05/04 00:43:49;;;;;;;33.80;19.00;;;;;;;13.76;100.00;100019.41;105955;1254;61948;-72
2023/05/04 00:46:16;;;;;;;34.50;17.30;;;;;;;12.78;100.00;100016.56;105968;1256;74921;-73
2023/05/04 00:48:45;;;;;;;23.50;14.90;;;;;;;13.09;100.00;100023.22;105825;1254;69041;-72
2023/05/04 00:51:12;;;;;;;17.40;12.80;;;;;;;13.98;100.00;100026.34;105774;1254;72811;-71
2023/05/04 00:53:39;;;;;;;13.10;9.80;;;;;;;13.10;100.00;100023.02;105709;1254;62221;-78
2023/05/04 00:56:06;;;;;;;11.10;9.80;;;;;;;13.06;100.00;100020.23;105951;1254;61349;-72
2023/05/04 00:58:33;;;;;;;15.10;9.20;;;;;;;13.07;100.00;100018.90;105819;1253;73690;-73
2023/05/04 01:01:01;;;;;;;10.70;9.10;;;;;;;13.62;100.00;100023.78;105632;1257;68800;-72
2023/05/04 01:03:28;;;;;;;9.90;8.20;;;;;;;13.82;100.00;100023.39;105574;1252;70601;-75
2023/05/04 01:06:21;;;;;;;9.70;8.70;;;;;;;13.80;100.00;100019.88;105982;1254;61240;-73
2023/05/04 01:09:02;;;;;;;10.50;8.90;;;;;;;12.64;100.00;100007.40;105894;1256;61542;-72
2023/05/04 01:11:40;;;;;;;12.10;9.10;;;;;;;12.86;100.00;100007.79;106025;1256;75354;-73
2023/05/04 01:14:07;;;;;;;10.50;9.40;;;;;;;12.44;100.00;99998.44;105871;1253;68985;-74
2023/05/04 01:16:34;;;;;;;9.90;8.90;;;;;;;12.43;100.00;99987.29;105677;1255;73769;-71
2023/05/04 01:19:02;;;;;;;12.70;9.90;;;;;;;13.07;100.00;99987.94;105848;1256;62227;-73
2023/05/04 01:21:29;;;;;;;;;;;;;;;13.72;100.00;99992.64;106080;1253;62263;-74
2023/05/04 01:23:57;;;;;;;12.20;9.00;;;;;;;12.58;100.00;99994.58;106046;1256;74968;-75
2023/05/04 01:26:27;;;;;;;15.30;9.60;;;;;;;12.64;100.00;99997.64;106057;1253;69365;-73
2023/05/04 01:28:59;;;;;;;9.70;8.80;;;;;;;12.79;100.00;99993.45;106082;1253;73448;-74
2023/05/04 01:31:27;;;;;;;13.80;9.20;;;;;;;13.18;100.00;99998.70;105576;1253;63103;-76
2023/05/04 01:33:55;;;;;;;9.90;8.40;;;;;;;13.66;100.00;100004.86;105741;1253;61296;-73
2023/05/04 01:36:22;;;;;;;10.20;9.20;;;;;;;13.43;100.00;99998.98;105576;1259;74355;-73
2023/05/04 01:38:52;;;;;;;14.20;8.60;;;;;;;13.34;100.00;99998.48;105699;1253;68825;-72
2023/05/04 01:41:20;;;;;;;13.10;9.60;;;;;;;13.32;100.00;100000.67;105800;1253;73100;-71
2023/05/04 01:43:48;;;;;;;11.40;9.90;;;;;;;13.01;100.00;99998.95;105668;1257;63015;-72
2023/05/04 01:46:14;;;;;;;10.70;9.10;;;;;;;13.13;100.00;100003.52;105833;1253;61286;-71
2023/05/04 01:48:41;;;;;;;15.90;11.80;;;;;;;12.85;100.00;100004.55;105718;1253;75686;-73
2023/05/04 01:51:08;;;;;;;18.50;12.50;;;;;;;12.70;100.00;100012.67;105785;1253;68723;-72
2023/05/04 01:53:35;;;;;;;26.10;13.50;;;;;;;12.67;100.00;100020.52;105826;1253;73687;-75
2023/05/04 01:56:02;;;;;;;23.80;15.40;;;;;;;12.71;100.00;100018.54;105763;1253;62041;-72
2023/05/04 01:58:29;;;;;;;23.80;15.70;;;;;;;12.66;100.00;100021.58;105646;1256;61161;-72
2023/05/04 02:00:58;;;;;;;22.10;14.60;;;;;;;12.69;100.00;100028.12;105766;1257;75766;-74
2023/05/04 02:03:25;;;;;;;19.80;13.60;;;;;;;12.96;100.00;100028.45;105807;1254;69099;-72
2023/05/04 02:05:52;;;;;;;18.90;12.40;;;;;;;12.79;100.00;100026.91;106094;1256;72137;-71
2023/05/04 02:08:19;;;;;;;18.70;12.00;;;;;;;12.84;100.00;100017.21;105882;1254;62280;-72
2023/05/04 02:10:46;;;;;;;18.90;11.40;;;;;;;13.02;100.00;100016.36;105816;1252;61317;-72
2023/05/04 02:13:14;;;;;;;12.70;10.40;;;;;;;13.03;100.00;100012.14;105284;1264;74481;-77
2023/05/04 02:15:41;;;;;;;13.10;10.30;;;;;;;13.45;100.00;100010.63;105716;1259;69127;-73
2023/05/04 02:18:10;;;;;;;14.20;10.80;;;;;;;12.94;100.00;100002.95;105652;1256;73301;-72
2023/05/04 02:20:37;;;;;;;10.90;9.30;;;;;;;12.81;100.00;99998.32;106025;1256;62019;-72
2023/05/04 02:23:04;;;;;;;10.80;9.30;;;;;;;12.84;100.00;99993.78;105740;1254;62253;-72
2023/05/04 02:25:31;;;;;;;9.80;8.60;;;;;;;12.88;100.00;99987.28;106003;1255;75750;-71
2023/05/04 02:27:58;;;;;;;12.60;10.10;;;;;;;12.97;100.00;99981.04;105880;1253;69646;-73
2023/05/04 02:30:25;;;;;;;11.00;9.10;;;;;;;12.97;100.00;99976.45;105881;1254;72958;-72
2023/05/04 02:32:52;;;;;;;15.20;11.20;;;;;;;12.82;100.00;99972.58;105603;1254;62642;-74
2023/05/04 02:35:21;;;;;;;17.30;12.60;;;;;;;12.66;100.00;99970.30;107158;1252;62313;-74
2023/05/04 02:37:48;;;;;;;34.70;20.40;;;;;;;12.65;100.00;99968.25;108203;1253;75023;-73
2023/05/04 02:40:15;;;;;;;48.40;23.10;;;;;;;12.88;100.00;99969.02;106364;1254;67857;-73
2023/05/04 02:42:42;;;;;;;46.90;24.00;;;;;;;13.10;100.00;99968.68;105667;1258;73076;-73
2023/05/04 02:45:09;;;;;;;36.80;22.20;;;;;;;13.09;100.00;99963.98;106024;1252;62996;-72
2023/05/04 02:47:36;;;;;;;37.90;20.20;;;;;;;12.81;100.00;99962.48;105853;1253;61225;-73
2023/05/04 02:50:04;;;;;;;24.50;17.00;;;;;;;12.73;100.00;99955.64;105791;1254;72964;-72
2023/05/04 02:52:32;;;;;;;21.60;14.00;;;;;;;12.81;100.00;99955.23;105826;1254;68518;-73
2023/05/04 02:55:00;;;;;;;19.30;13.20;;;;;;;12.95;100.00;99947.61;105699;1254;73733;-73
2023/05/04 02:57:27;;;;;;;18.70;12.70;;;;;;;12.97;100.00;99948.33;105818;1254;62265;-73
2023/05/04 02:59:54;;;;;;;18.40;10.90;;;;;;;13.08;100.00;99943.66;105784;1254;61322;-73
2023/05/04 03:02:20;;;;;;;18.30;11.10;;;;;;;13.07;100.00;99941.06;105992;1253;74641;-71
2023/05/04 03:04:47;;;;;;;15.30;10.70;;;;;;;13.08;100.00;99948.55;105642;1253;69275;-72
2023/05/04 03:07:14;;;;;;;14.50;10.30;;;;;;;13.11;100.00;99947.28;105690;1254;72723;-69
2023/05/04 03:09:41;;;;;;;14.60;11.70;;;;;;;13.32;100.00;99951.75;105839;1253;62754;-73
2023/05/04 03:12:08;;;;;;;14.70;10.10;;;;;;;13.30;100.00;99951.45;105882;1252;62237;-73
2023/05/04 03:14:35;;;;;;;19.20;11.50;;;;;;;13.45;100.00;99951.96;105652;1258;74748;-73
2023/05/04 03:17:02;;;;;;;14.90;10.60;;;;;;;13.36;100.00;99941.30;105984;1253;69679;-73
2023/05/04 03:19:29;;;;;;;16.50;11.50;;;;;;;13.22;100.00;99946.00;105719;1253;73697;-73
2023/05/04 03:21:56;;;;;;;15.30;11.80;;;;;;;13.03;100.00;99951.86;105858;1253;62027;-72
2023/05/04 03:24:24;;;;;;;12.30;10.60;;;;;;;13.00;100.00;99955.30;105660;1258;61135;-70
2023/05/04 03:26:51;;;;;;;17.70;13.20;;;;;;;13.14;100.00;99957.81;105938;1254;74632;-72
2023/05/04 03:29:18;;;;;;;25.10;14.50;;;;;;;13.15;100.00;99948.44;105662;1254;69155;-74
2023/05/04 03:31:45;;;;;;;27.90;16.30;;;;;;;13.50;100.00;99939.73;105600;1257;73119;-72
2023/05/04 03:34:14;;;;;;;26.60;16.50;;;;;;;13.46;100.00;99948.58;105787;1253;63026;-72
2023/05/04 03:36:41;;;;;;;18.50;12.70;;;;;;;13.25;100.00;99947.43;105892;1253;62289;-72
2023/05/04 03:39:08;;;;;;;17.90;13.00;;;;;;;13.63;100.00;99952.84;105863;1256;74498;-74
2023/05/04 03:41:36;;;;;;;12.40;10.50;;;;;;;13.67;100.00;99951.61;105914;1254;68665;-72
2023/05/04 03:44:03;;;;;;;13.20;10.70;;;;;;;13.61;100.00;99954.80;105871;1254;73665;-71
2023/05/04 03:46:31;;;;;;;11.30;10.10;;;;;;;13.48;100.00;99951.17;105988;1254;62650;-72
2023/05/04 03:48:58;;;;;;;14.10;9.80;;;;;;;13.55;100.00;99958.15;105888;1253;61192;-71
2023/05/04 03:51:25;;;;;;;11.60;9.00;;;;;;;13.62;100.00;99957.22;105875;1252;74922;-72
2023/05/04 03:53:52;;;;;;;16.00;11.00;;;;;;;13.50;100.00;99953.23;105884;1254;69819;-70
2023/05/04 03:56:18;;;;;;;16.70;12.10;;;;;;;13.66;100.00;99962.95;106039;1254;74107;-72
2023/05/04 03:58:45;;;;;;;14.20;10.20;;;;;;;13.90;100.00;99964.48;105597;1259;61259;-71
2023/05/04 04:01:13;;;;;;;13.00;11.10;;;;;;;13.89;100.00;99962.86;105891;1254;61256;-74
2023/05/04 04:03:40;;;;;;;13.50;10.50;;;;;;;14.06;100.00;99971.93;105680;1256;74748;-73
2023/05/04 04:06:08;;;;;;;17.50;11.00;;;;;;;14.00;100.00;99973.20;105651;1254;69504;-71
2023/05/04 04:08:35;;;;;;;15.60;10.60;;;;;;;14.02;100.00;99972.88;105715;1259;73045;-73
2023/05/04 04:11:02;;;;;;;13.00;10.20;;;;;;;13.89;100.00;99970.52;105989;1253;62301;-72
2023/05/04 04:13:30;;;;;;;11.70;8.90;;;;;;;13.94;100.00;99974.70;105640;1253;61203;-73
2023/05/04 04:15:57;;;;;;;9.70;8.70;;;;;;;14.18;100.00;99984.85;105620;1260;74942;-72
2023/05/04 04:18:24;;;;;;;12.10;9.00;;;;;;;14.06;100.00;99987.69;106063;1254;69304;-72
2023/05/04 04:20:50;;;;;;;12.30;9.00;;;;;;;14.14;100.00;99989.27;105896;1255;73316;-75
2023/05/04 04:23:18;;;;;;;9.80;8.40;;;;;;;14.11;100.00;99990.77;105646;1253;62799;-73
2023/05/04 04:25:45;;;;;;;14.60;9.70;;;;;;;14.15;100.00;99993.31;105653;1253;61311;-73
2023/05/04 04:28:15;;;;;;;12.60;9.30;;;;;;;14.27;100.00;99992.42;105696;1256;75611;-74
2023/05/04 04:30:42;;;;;;;15.10;9.00;;;;;;;14.32;100.00;99993.25;105867;1253;68849;-71
2023/05/04 04:33:09;;;;;;;11.20;9.00;;;;;;;14.34;100.00;99993.40;105898;1256;72607;-72
2023/05/04 04:35:36;;;;;;;10.20;7.70;;;;;;;14.51;100.00;99995.34;105830;1252;61881;-72
2023/05/04 04:38:03;;;;;;;10.50;7.60;;;;;;;14.63;100.00;99994.45;105705;1254;61320;-70
2023/05/04 04:40:30;;;;;;;11.80;8.70;;;;;;;14.64;100.00;99991.14;105885;1255;75306;-72
2023/05/04 04:42:57;;;;;;;13.00;9.20;;;;;;;14.54;100.00;99999.07;105965;1252;68878;-74
2023/05/04 04:45:24;;;;;;;8.30;7.30;;;;;;;14.94;100.00;99999.19;105867;1256;73647;-72
2023/05/04 04:47:51;;;;;;;12.20;8.00;;;;;;;15.02;100.00;100001.83;105825;1252;62957;-72
2023/05/04 04:50:18;;;;;;;9.50;7.50;;;;;;;15.15;100.00;100001.34;105892;1253;61630;-72
2023/05/04 04:52:45;;;;;;;9.10;8.00;;;;;;;15.20;100.00;100004.35;105869;1255;75060;-72
2023/05/04 04:55:14;;;;;;;11.80;7.90;;;;;;;15.22;100.00;100009.91;105866;1253;68552;-72
2023/05/04 04:57:41;;;;;;;10.90;8.20;;;;;;;14.99;100.00;100020.55;105926;1256;72959;-72
2023/05/04 05:00:09;;;;;;;14.60;8.50;;;;;;;14.87;100.00;100013.27;105791;1253;61974;-72
2023/05/04 05:02:36;;;;;;;14.60;7.30;;;;;;;14.93;100.00;100010.00;105992;1253;62285;-74
2023/05/04 05:05:04;;;;;;;9.00;7.20;;;;;;;14.97;100.00;100005.40;105988;1257;75399;-71
2023/05/04 05:07:31;;;;;;;9.90;7.50;;;;;;;14.81;100.00;100000.55;105849;1253;69821;-74
2023/05/04 05:09:58;;;;;;;8.30;6.80;;;;;;;14.82;100.00;99995.74;105719;1253;72236;-71
2023/05/04 05:12:25;;;;;;;10.60;7.40;;;;;;;14.93;100.00;99990.48;105898;1253;63067;-71
2023/05/04 05:14:52;;;;;;;11.00;7.80;;;;;;;14.64;100.00;99985.02;105964;1253;62278;-73
2023/05/04 05:17:19;;;;;;;11.10;7.40;;;;;;;14.99;100.00;99987.98;105889;1256;76028;-73
2023/05/04 05:19:46;;;;;;;11.40;7.50;;;;;;;15.11;100.00;99993.92;105892;1253;69862;-72
2023/05/04 05:22:13;;;;;;;8.20;7.30;;;;;;;15.18;100.00;100000.30;105860;1257;72707;-74
2023/05/04 05:24:41;;;;;;;9.40;7.10;;;;;;;15.13;100.00;100001.28;105694;1253;62270;-76
2023/05/04 05:27:08;;;;;;;9.00;7.70;;;;;;;15.19;100.00;100006.45;105684;1253;61286;-74
2023/05/04 05:29:35;;;;;;;9.60;7.00;;;;;;;15.54;100.00;100019.09;105664;1256;75794;-72
2023/05/04 05:32:03;;;;;;;10.30;7.50;;;;;;;15.72;100.00;100024.08;105825;1253;69813;-72
2023/05/04 05:34:30;;;;;;;10.40;8.20;;;;;;;15.66;100.00;100028.30;105855;1253;72890;-74
2023/05/04 05:36:57;;;;;;;11.50;7.60;;;;;;;15.59;100.00;100025.41;105586;1257;61884;-72
2023/05/04 05:39:24;;;;;;;13.70;7.40;;;;;;;15.85;100.00;100025.02;105664;1254;61547;-73
2023/05/04 05:41:56;;;;;;;15.70;8.00;;;;;;;16.19;100.00;100029.36;106563;1256;75803;-73
2023/05/04 05:44:23;;;;;;;12.40;6.90;;;;;;;16.25;100.00;100034.08;108550;1253;68626;-73
2023/05/04 05:46:50;;;;;;;14.10;7.50;;;;;;;16.23;100.00;100037.95;106768;1254;70469;-74
2023/05/04 05:49:17;;;;;;;9.60;7.60;;;;;;;16.41;100.00;100037.13;105641;1254;61921;-77
2023/05/04 05:51:44;;;;;;;11.30;7.00;;;;;;;16.77;100.00;100039.92;105692;1254;61340;-73
2023/05/04 05:54:10;;;;;;;8.50;6.70;;;;;;;17.15;98.93;100038.59;106052;1256;74497;-73
2023/05/04 05:56:37;;;;;;;8.20;5.80;;;;;;;17.65;92.84;100035.22;106068;1254;69328;-72
2023/05/04 05:59:05;;;;;;;7.20;6.30;;;;;;;17.79;88.33;100030.27;106024;1256;70755;-77
2023/05/04 06:01:32;;;;;;;;;;;;;;;18.25;85.19;100037.38;105933;1252;61956;-77
2023/05/04 06:03:59;;;;;;;8.10;6.50;;;;;;;18.21;86.05;100029.86;105940;1254;61218;-72
2023/05/04 06:06:27;;;;;;;10.40;6.60;;;;;;;18.68;78.60;100027.06;105946;1256;74602;-76
2023/05/04 06:08:54;;;;;;;8.70;6.60;;;;;;;18.68;77.49;100023.09;105887;1254;69641;-73
2023/05/04 06:11:21;;;;;;;9.20;6.70;;;;;;;18.88;77.56;100023.38;105939;1254;73634;-73
2023/05/04 06:13:48;;;;;;;11.40;6.40;;;;;;;18.81;74.78;100019.27;105877;1253;62485;-74
2023/05/04 06:16:15;;;;;;;8.30;6.30;;;;;;;18.41;77.22;100017.41;105848;1253;62248;-71
2023/05/04 06:18:42;;;;;;;8.10;5.60;;;;;;;17.92;81.72;100014.64;105894;1256;74978;-73
2023/05/04 06:21:09;;;;;;;9.40;6.60;;;;;;;17.91;83.40;100009.14;105861;1254;68697;-75
2023/05/04 06:23:36;;;;;;;11.90;6.70;;;;;;;18.28;81.46;100015.37;105931;1256;73106;-74
2023/05/04 06:26:09;;;;;;;7.20;5.70;;;;;;;18.81;75.16;100026.92;105712;1253;62929;-76
2023/05/04 06:28:36;;;;;;;9.00;6.10;;;;;;;18.66;75.10;100022.00;105818;1253;61243;-75
2023/05/04 06:31:03;;;;;;;19.60;6.40;;;;;;;18.13;78.37;100015.80;105551;1259;74833;-73
2023/05/04 06:33:30;;;;;;;33.40;7.20;;;;;;;18.05;79.02;100008.33;105902;1252;69162;-75
2023/05/04 06:35:57;;;;;;;6.80;5.70;;;;;;;17.39;86.61;100001.62;105875;1253;71976;-74
2023/05/04 06:38:24;;;;;;;8.80;6.00;;;;;;;17.56;85.91;99995.09;105778;1254;62577;-74
2023/05/04 06:40:51;;;;;;;9.60;6.60;;;;;;;18.18;82.06;99990.02;105605;1259;61448;-73
2023/05/04 06:43:19;;;;;;;6.80;6.10;;;;;;;18.72;76.26;99995.80;105722;1257;75285;-72
2023/05/04 06:45:46;;;;;;;8.50;5.60;;;;;;;19.20;71.89;100000.67;105587;1253;68803;-75
2023/05/04 06:48:13;;;;;;;11.60;5.80;;;;;;;19.22;70.75;99997.56;105887;1253;73223;-73
2023/05/04 06:50:40;;;;;;;7.10;6.20;;;;;;;18.62;73.80;99988.11;105837;1253;61989;-75
2023/05/04 06:53:08;;;;;;;6.10;5.50;;;;;;;18.50;76.21;99993.30;105675;1253;61213;-72
2023/05/04 06:55:36;;;;;;;10.80;6.40;;;;;;;18.43;76.29;100003.52;105741;1257;75651;-73
2023/05/04 06:58:03;;;;;;;9.20;5.80;;;;;;;18.42;76.20;100003.32;105688;1253;68751;-74
2023/05/04 07:00:30;;;;;;;7.70;5.80;;;;;;;18.54;76.40;100009.87;105729;1253;73465;-72
2023/05/04 07:02:57;;;;;;;10.00;6.60;;;;;;;18.69;73.77;100019.42;106045;1257;62233;-74
2023/05/04 07:05:24;;;;;;;7.60;6.50;;;;;;;18.44;74.97;100015.69;105898;1254;61259;-72
2023/05/04 07:07:52;;;;;;;9.70;6.10;;;;;;;18.48;76.12;100016.54;105705;1261;74002;-75
2023/05/04 07:10:19;;;;;;;10.60;6.60;;;;;;;18.77;74.94;100010.61;106039;1256;69609;-73
2023/05/04 07:12:46;;;;;;;8.20;6.00;;;;;;;19.17;72.33;100011.14;105719;1253;73794;-71
2023/05/04 07:15:13;;;;;;;7.90;6.10;;;;;;;19.15;70.57;100010.86;105714;1254;62856;-73
2023/05/04 07:17:40;;;;;;;8.00;7.20;;;;;;;19.04;70.79;100015.45;105904;1252;61472;-75
2023/05/04 07:20:08;;;;;;;7.60;6.50;;;;;;;19.10;71.12;100016.00;106093;1256;74646;-76
2023/05/04 07:22:35;;;;;;;7.60;6.80;;;;;;;19.47;69.02;100017.06;105904;1256;69029;-74
2023/05/04 07:25:02;;;;;;;8.50;7.00;;;;;;;19.83;66.13;100018.83;105911;1258;73179;-73
2023/05/04 07:27:30;;;;;;;8.40;6.90;;;;;;;20.17;63.92;100023.33;106031;1253;62277;-75
2023/05/04 07:29:57;;;;;;;8.60;6.40;;;;;;;20.53;61.84;100024.88;105897;1253;61251;-77
2023/05/04 07:32:24;;;;;;;6.10;5.30;;;;;;;21.06;59.23;100025.99;105716;1253;75532;-77
2023/05/04 07:34:51;;;;;;;7.00;6.10;;;;;;;21.45;56.34;100029.98;105710;1253;68700;-74
2023/05/04 07:37:18;;;;;;;7.30;6.30;;;;;;;21.83;56.10;100029.70;105793;1261;72673;-73
2023/05/04 07:39:45;;;;;;;6.20;5.40;;;;;;;21.74;54.33;100032.02;105692;1253;61353;-73
2023/05/04 07:42:12;;;;;;;10.60;6.60;;;;;;;21.28;55.09;100032.96;105902;1253;61335;-71
2023/05/04 07:44:40;;;;;;;8.70;5.90;;;;;;;20.82;58.08;100028.06;105827;1256;75452;-72
2023/05/04 07:47:06;;;;;;;8.40;6.20;;;;;;;19.88;61.54;100032.42;105918;1254;69688;-73
2023/05/04 07:49:33;;;;;;;8.90;6.40;;;;;;;18.71;70.58;100031.73;105925;1256;72932;-72
2023/05/04 07:52:00;;;;;;;6.50;5.80;;;;;;;18.76;73.27;100032.71;105912;1254;61491;-73
2023/05/04 07:54:27;;;;;;;11.00;7.40;;;;;;;18.68;73.92;100024.08;105937;1254;61393;-75
2023/05/04 07:56:54;;;;;;;10.20;7.30;;;;;;;18.04;79.02;100018.02;105878;1256;75843;-74
2023/05/04 07:59:21;;;;;;;7.10;6.20;;;;;;;17.94;81.05;100013.81;105933;1254;68852;-72
2023/05/04 08:01:48;;;;;;;8.30;6.50;;;;;;;17.90;81.02;100015.16;105860;1254;72846;-72
2023/05/04 08:04:15;;;;;;;11.40;6.70;;;;;;;17.52;86.02;100011.15;105830;1252;61477;-73
2023/05/04 08:06:42;;;;;;;9.70;6.80;;;;;;;17.13;89.86;99999.83;105857;1253;61398;-72
2023/05/04 08:09:09;;;;;;;11.90;7.90;;;;;;;17.30;90.70;99997.98;105797;1255;75682;-72
2023/05/04 08:11:38;;;;;;;9.70;7.80;;;;;;;17.39;89.61;100004.46;105609;1254;69709;-74
2023/05/04 08:14:05;;;;;;;11.20;7.20;;;;;;;17.90;83.89;100005.71;106088;1254;73799;-74
2023/05/04 08:16:32;;;;;;;14.30;7.00;;;;;;;18.17;82.28;100007.77;105920;1253;62882;-74
2023/05/04 08:19:00;;;;;;;12.20;6.50;;;;;;;17.20;90.01;99999.05;105922;1256;61319;-75
2023/05/04 08:21:27;;;;;;;11.30;7.40;;;;;;;18.27;82.97;99999.99;105996;1256;74759;-75
2023/05/04 08:23:54;;;;;;;8.80;6.50;;;;;;;18.70;78.05;100005.70;105858;1253;69298;-75
2023/05/04 08:26:20;;;;;;;9.30;8.10;;;;;;;18.69;76.53;100006.33;105800;1253;73764;-72
2023/05/04 08:28:49;;;;;;;10.50;8.60;;;;;;;19.12;75.48;100014.06;105686;1253;62124;-73
2023/05/04 08:31:20;;;;;;;12.90;7.30;;;;;;;19.51;72.04;100012.73;105737;1253;61392;-73
2023/05/04 08:33:47;;;;;;;8.40;7.20;;;;;;;19.42;70.59;100011.23;105715;1253;73608;-74
2023/05/04 08:36:14;;;;;;;12.80;8.90;;;;;;;18.52;76.38;100006.27;105900;1253;69484;-75
2023/05/04 08:38:41;;;;;;;16.70;7.80;;;;;;;17.75;85.47;100000.30;105876;1253;72662;-73
2023/05/04 08:41:09;;;;;;;36.60;9.00;;;;;;;17.66;87.14;100004.96;105758;1253;61345;-73
2023/05/04 08:43:37;;;;;;;9.70;8.00;;;;;;;18.10;85.49;100008.67;105788;1253;61385;-73
2023/05/04 08:46:05;;;;;;;11.10;6.70;;;;;;;19.39;75.95;100010.08;105614;1262;74982;-74
2023/05/04 08:48:35;;;;;;;9.20;6.20;;;;;;;19.94;68.28;100009.77;105926;1253;69340;-75
2023/05/04 08:51:05;;;;;;;10.60;7.00;;;;;;;19.21;70.97;100008.63;105564;1257;73357;-75
2023/05/04 08:53:34;;;;;;;12.30;8.80;;;;;;;18.89;75.22;100009.64;106608;1253;61187;-74
2023/05/04 08:56:03;;;;;;;7.90;6.30;;;;;;;18.75;77.19;100003.75;108208;1253;61228;-76
2023/05/04 08:58:30;;;;;;;11.00;7.50;;;;;;;19.05;74.14;100005.95;106799;1258;74502;-74
2023/05/04 09:00:58;;;;;;;9.50;6.80;;;;;;;20.09;70.50;100002.95;105694;1259;67628;-75
2023/05/04 09:03:25;;;;;;;7.00;6.10;;;;;;;20.02;67.11;99999.91;105739;1252;149037;-77
2023/05/04 09:05:53;;;;;;;13.20;8.80;;;;;;;20.14;66.00;99998.42;105583;1253;61325;-79
2023/05/04 09:08:20;;;;;;;10.80;6.80;;;;;;;20.30;66.66;100000.48;105575;1254;61252;-75
2023/05/04 09:10:47;;;;;;;10.10;5.80;;;;;;;20.33;62.93;99998.13;105856;1256;74638;-77
2023/05/04 09:13:14;;;;;;;10.90;5.80;;;;;;;19.69;65.56;100001.02;105990;1256;69529;-79
2023/05/04 09:15:41;;;;;;;10.10;6.10;;;;;;;19.51;67.56;100000.49;105844;1253;70981;-74
2023/05/04 09:18:08;;;;;;;11.90;6.60;;;;;;;19.74;67.98;100002.11;105817;1257;61326;-77
2023/05/04 09:20:43;;;;;;;9.80;6.30;;;;;;;20.08;66.33;99999.48;105831;1254;61397;-77
2023/05/04 09:23:11;;;;;;;6.20;5.60;;;;;;;21.13;58.92;100008.63;105882;1258;74752;-78
2023/05/04 09:25:51;;;;;;;26.70;6.70;;;;;;;21.16;56.71;100005.60;105992;1253;69898;-77
2023/05/04 09:28:20;;;;;;;10.30;5.80;;;;;;;21.37;56.23;100010.40;106046;1253;73832;-74
2023/05/04 09:30:47;;;;;;;10.80;5.90;;;;;;;21.52;55.62;100012.59;106185;1253;61254;-74
2023/05/04 09:33:15;;;;;;;7.70;5.90;;;;;;;21.88;55.10;100014.34;105998;1252;61346;-73
2023/05/04 09:35:45;;;;;;;7.20;6.40;;;;;;;21.80;54.98;100019.78;105845;1256;75556;-76
2023/05/04 09:38:25;;;;;;;9.10;6.40;;;;;;;21.92;55.26;100018.82;105839;1253;69511;-79
2023/05/04 09:40:52;;;;;;;15.60;7.10;;;;;;;21.92;54.41;100016.63;105938;1258;73563;-80
2023/05/04 09:43:19;;;;;;;8.30;7.30;;;;;;;21.58;56.76;100013.51;105902;1253;62281;-75
2023/05/04 09:45:46;;;;;;;10.10;6.90;;;;;;;20.97;58.85;100004.38;105874;1253;61379;-76
2023/05/04 09:48:18;;;;;;;10.40;9.00;;;;;;;20.03;65.53;99990.87;105913;1258;75574;-74
2023/05/04 09:50:53;;;;;;;14.60;7.50;;;;;;;19.82;67.90;99994.88;105779;1257;68493;-78
2023/05/04 09:53:22;;;;;;;13.00;7.70;;;;;;;19.92;67.15;99996.09;105927;1258;72324;-79
2023/05/04 09:55:58;;;;;;;10.60;7.50;;;;;;;20.34;65.22;100004.98;105818;1262;61349;-78
2023/05/04 09:58:29;;;;;;;17.30;7.40;;;;;;;20.39;64.24;100004.80;105664;1253;61394;-77
2023/05/04 10:00:57;;;;;;;13.30;7.00;;;;;;;20.59;63.86;100014.13;105872;1253;74353;-75
2023/05/04 10:03:25;;;;;;;12.60;6.70;;;;;;;20.86;62.32;100011.34;106049;1254;68597;-76
2023/05/04 10:05:52;;;;;;;12.10;7.90;;;;;;;21.26;59.08;100011.13;105877;1255;72656;-77
2023/05/04 10:08:20;;;;;;;24.10;7.80;;;;;;;21.32;57.42;100013.48;105812;1254;61310;-76
2023/05/04 10:10:47;;;;;;;11.20;7.00;;;;;;;21.68;56.21;100018.47;105900;1253;61419;-76
2023/05/04 10:13:14;;;;;;;8.30;6.90;;;;;;;22.08;53.88;100018.19;105878;1253;72924;-77
2023/05/04 10:15:50;;;;;;;10.60;8.20;;;;;;;20.93;58.07;100006.74;105773;1253;68275;-76
2023/05/04 10:19:28;;;;;;;11.60;7.90;;;;;;;20.39;63.41;100006.56;105475;1253;71427;-75
2023/05/04 10:22:30;;;;;;;14.40;7.40;;;;;;;19.17;70.36;100004.74;105991;1255;61209;-78
2023/05/04 10:25:13;;;;;;;11.40;7.50;;;;;;;19.00;72.07;100006.10;106073;1255;61339;-77
2023/05/04 10:28:01;;;;;;;7.50;6.70;;;;;;;19.17;72.86;100003.16;106097;1256;75497;-77
2023/05/04 10:30:28;;;;;;;10.40;7.10;;;;;;;19.65;69.99;100005.06;106126;1254;68997;-73
2023/05/04 10:32:56;;;;;;;11.50;7.40;;;;;;;19.93;68.60;100004.81;106095;1254;70677;-78
2023/05/04 10:35:23;;;;;;;9.60;6.50;;;;;;;20.03;66.85;100001.52;106042;1254;61346;-76
2023/05/04 10:37:54;;;;;;;10.50;6.50;;;;;;;20.58;63.17;100000.44;106072;1256;61909;-76
2023/05/04 10:40:34;;;;;;;9.90;6.80;;;;;;;20.67;62.37;99993.30;105864;1254;75386;-75
2023/05/04 10:43:01;;;;;;;18.20;6.80;;;;;;;21.40;58.10;99988.84;106125;1254;68741;-75
2023/05/04 10:45:38;;;;;;;20.60;7.90;;;;;;;20.53;60.47;99974.65;106069;1256;73509;-75
2023/05/04 10:48:07;;;;;;;7.50;6.00;;;;;;;20.46;61.45;99975.48;105857;1255;61309;-73
2023/05/04 10:50:44;;;;;;;9.30;6.70;;;;;;;20.32;61.23;99972.55;106111;1254;61250;-76
2023/05/04 10:53:13;;;;;;;12.90;7.30;;;;;;;20.32;63.61;99968.18;105784;1254;74637;-76
2023/05/04 10:55:44;;;;;;;10.10;6.30;;;;;;;20.75;60.14;99962.89;106108;1256;66709;-76
2023/05/04 10:58:15;;;;;;;10.60;6.60;;;;;;;20.30;61.15;99964.60;106119;1254;72764;-80
2023/05/04 11:00:45;;;;;;;9.50;6.80;;;;;;;20.07;62.43;99968.80;106042;1254;61228;-76
2023/05/04 11:03:12;;;;;;;7.70;6.90;;;;;;;20.20;61.41;99962.59;106045;1253;61218;-74
2023/05/04 11:05:44;;;;;;;13.00;7.40;;;;;;;20.66;60.29;99967.28;105752;1254;74074;-75
2023/05/04 11:08:15;;;;;;;15.60;6.60;;;;;;;20.55;60.94;99966.09;106112;1254;69635;-75
2023/05/04 11:10:42;;;;;;;10.60;6.30;;;;;;;20.27;62.08;99967.52;105694;1257;71254;-75
2023/05/04 11:13:10;;;;;;;7.70;6.80;;;;;;;21.47;57.62;99973.16;106096;1254;61164;-75
2023/05/04 11:15:50;;;;;;;7.80;7.00;;;;;;;20.44;60.46;99965.41;106071;1254;61318;-74